sensor_id;sensor_type;location;lat;lon;timestamp;temperature;humidity
19888;DHT22;10106;51.332;12.336;2022-10-16T00:02:19;15.20;99.90
19888;DHT22;10106;51.332;12.336;2022-10-16T00:04:45;15.10;99.90
19888;DHT22;10106;51.332;12.336;2022-10-16T00:07:11;15.10;99.90
19888;DHT22;10106;51.332;12.336;2022-10-16T00:09:36;15.00;99.90
19888;DHT22;10106;51.332;12.336;2022-10-16T00:12:02;15.00;99.90
19888;DHT22;10106;51.332;12.336;2022-10-16T00:14:29;15.10;99.90
19888;DHT22;10106;51.332;12.336;2022-10-16T00:16:55;15.00;99.90
19888;DHT22;10106;51.332;12.336;2022-10-16T00:19:21;15.00;99.90
19888;DHT22;10106;51.332;12.336;2022-10-16T00:21:46;15.00;99.90
19888;DHT22;10106;51.332;12.336;2022-10-16T00:24:12;15.00;99.90
19888;DHT22;10106;51.332;12.336;2022-10-16T00:26:38;15.00;99.90
19888;DHT22;10106;51.332;12.336;2022-10-16T00:29:05;15.10;99.90
19888;DHT22;10106;51.332;12.336;2022-10-16T00:31:31;15.10;99.90
19888;DHT22;10106;51.332;12.336;2022-10-16T00:33:57;15.10;99.90
19888;DHT22;10106;51.332;12.336;2022-10-16T00:36:24;15.20;99.90
19888;DHT22;10106;51.332;12.336;2022-10-16T00:38:52;15.30;99.90
19888;DHT22;10106;51.332;12.336;2022-10-16T00:41:22;15.30;99.90
19888;DHT22;10106;51.332;12.336;2022-10-16T00:43:57;15.30;99.90
19888;DHT22;10106;51.332;12.336;2022-10-16T00:46:38;15.30;99.90
19888;DHT22;10106;51.332;12.336;2022-10-16T00:51:35;15.30;99.90
19888;DHT22;10106;51.332;12.336;2022-10-16T00:54:03;15.30;99.90
19888;DHT22;10106;51.332;12.336;2022-10-16T00:56:29;15.20;99.90
19888;DHT22;10106;51.332;12.336;2022-10-16T00:58:55;15.20;99.90
19888;DHT22;10106;51.332;12.336;2022-10-16T01:01:20;15.20;99.90
19888;DHT22;10106;51.332;12.336;2022-10-16T01:03:46;15.20;99.90
19888;DHT22;10106;51.332;12.336;2022-10-16T01:06:25;15.10;99.90
19888;DHT22;10106;51.332;12.336;2022-10-16T01:09:00;15.00;99.90
19888;DHT22;10106;51.332;12.336;2022-10-16T01:11:44;15.00;99.90
19888;DHT22;10106;51.332;12.336;2022-10-16T01:14:32;15.00;99.90
19888;DHT22;10106;51.332;12.336;2022-10-16T01:17:09;14.90;99.90
19888;DHT22;10106;51.332;12.336;2022-10-16T01:20:00;14.90;99.90
19888;DHT22;10106;51.332;12.336;2022-10-16T01:22:56;14.90;99.90
19888;DHT22;10106;51.332;12.336;2022-10-16T01:28:11;14.90;99.90
19888;DHT22;10106;51.332;12.336;2022-10-16T01:30:40;14.90;99.90
19888;DHT22;10106;51.332;12.336;2022-10-16T01:33:19;14.90;99.90
19888;DHT22;10106;51.332;12.336;2022-10-16T01:35:53;14.80;99.90
19888;DHT22;10106;51.332;12.336;2022-10-16T01:38:29;14.80;99.90
19888;DHT22;10106;51.332;12.336;2022-10-16T01:41:03;14.70;99.90
19888;DHT22;10106;51.332;12.336;2022-10-16T01:43:42;14.70;99.90
19888;DHT22;10106;51.332;12.336;2022-10-16T01:46:10;14.70;99.90
19888;DHT22;10106;51.332;12.336;2022-10-16T01:48:39;14.70;99.90
19888;DHT22;10106;51.332;12.336;2022-10-16T01:51:10;14.80;99.90
19888;DHT22;10106;51.332;12.336;2022-10-16T01:53:36;14.70;99.90
19888;DHT22;10106;51.332;12.336;2022-10-16T01:56:05;14.70;99.90
19888;DHT22;10106;51.332;12.336;2022-10-16T01:58:36;14.70;99.90
19888;DHT22;10106;51.332;12.336;2022-10-16T02:01:04;14.70;99.90
19888;DHT22;10106;51.332;12.336;2022-10-16T02:03:34;14.70;99.90
19888;DHT22;10106;51.332;12.336;2022-10-16T02:06:02;14.70;99.90
19888;DHT22;10106;51.332;12.336;2022-10-16T02:08:28;14.60;99.90
19888;DHT22;10106;51.332;12.336;2022-10-16T02:10:56;14.50;99.90
19888;DHT22;10106;51.332;12.336;2022-10-16T02:16:11;14.50;99.90
19888;DHT22;10106;51.332;12.336;2022-10-16T02:18:37;14.40;99.90
19888;DHT22;10106;51.332;12.336;2022-10-16T02:21:25;14.40;99.90
19888;DHT22;10106;51.332;12.336;2022-10-16T02:26:51;14.50;99.90
19888;DHT22;10106;51.332;12.336;2022-10-16T02:29:22;14.50;99.90
19888;DHT22;10106;51.332;12.336;2022-10-16T02:31:52;14.50;99.90
19888;DHT22;10106;51.332;12.336;2022-10-16T02:34:21;14.50;99.90
19888;DHT22;10106;51.332;12.336;2022-10-16T02:36:50;14.50;99.90
19888;DHT22;10106;51.332;12.336;2022-10-16T02:39:17;14.50;99.90
19888;DHT22;10106;51.332;12.336;2022-10-16T02:41:43;14.50;99.90
19888;DHT22;10106;51.332;12.336;2022-10-16T02:44:09;14.40;99.90
19888;DHT22;10106;51.332;12.336;2022-10-16T02:46:34;14.40;99.90
19888;DHT22;10106;51.332;12.336;2022-10-16T02:49:00;14.40;99.90
19888;DHT22;10106;51.332;12.336;2022-10-16T02:51:26;14.40;99.90
19888;DHT22;10106;51.332;12.336;2022-10-16T02:53:52;14.30;99.90
19888;DHT22;10106;51.332;12.336;2022-10-16T02:56:17;14.40;99.90
19888;DHT22;10106;51.332;12.336;2022-10-16T02:58:43;14.30;99.90
19888;DHT22;10106;51.332;12.336;2022-10-16T03:01:08;14.30;99.90
19888;DHT22;10106;51.332;12.336;2022-10-16T03:03:34;14.30;99.90
19888;DHT22;10106;51.332;12.336;2022-10-16T03:05:59;14.30;99.90
19888;DHT22;10106;51.332;12.336;2022-10-16T03:08:25;14.30;99.90
19888;DHT22;10106;51.332;12.336;2022-10-16T03:10:51;14.20;99.90
19888;DHT22;10106;51.332;12.336;2022-10-16T03:13:16;14.30;99.90
19888;DHT22;10106;51.332;12.336;2022-10-16T03:15:43;14.20;99.90
19888;DHT22;10106;51.332;12.336;2022-10-16T03:18:08;14.20;99.90
19888;DHT22;10106;51.332;12.336;2022-10-16T03:20:34;14.20;99.90
19888;DHT22;10106;51.332;12.336;2022-10-16T03:23:00;14.20;99.90
19888;DHT22;10106;51.332;12.336;2022-10-16T03:25:25;14.20;99.90
19888;DHT22;10106;51.332;12.336;2022-10-16T03:27:51;14.10;99.90
19888;DHT22;10106;51.332;12.336;2022-10-16T03:30:17;14.10;99.90
19888;DHT22;10106;51.332;12.336;2022-10-16T03:32:44;14.10;99.90
19888;DHT22;10106;51.332;12.336;2022-10-16T03:35:10;14.10;99.90
19888;DHT22;10106;51.332;12.336;2022-10-16T03:37:35;14.10;99.90
19888;DHT22;10106;51.332;12.336;2022-10-16T03:40:02;14.00;99.90
19888;DHT22;10106;51.332;12.336;2022-10-16T03:42:27;14.00;99.90
19888;DHT22;10106;51.332;12.336;2022-10-16T03:44:53;14.10;99.90
19888;DHT22;10106;51.332;12.336;2022-10-16T03:47:19;14.00;99.90
19888;DHT22;10106;51.332;12.336;2022-10-16T03:49:47;14.10;99.90
19888;DHT22;10106;51.332;12.336;2022-10-16T03:52:13;14.00;99.90
19888;DHT22;10106;51.332;12.336;2022-10-16T03:54:38;14.00;99.90
19888;DHT22;10106;51.332;12.336;2022-10-16T03:57:04;14.00;99.90
19888;DHT22;10106;51.332;12.336;2022-10-16T03:59:30;14.10;99.90
19888;DHT22;10106;51.332;12.336;2022-10-16T04:01:55;14.10;99.90
19888;DHT22;10106;51.332;12.336;2022-10-16T04:04:21;14.10;99.90
19888;DHT22;10106;51.332;12.336;2022-10-16T04:06:46;14.10;99.90
19888;DHT22;10106;51.332;12.336;2022-10-16T04:09:12;14.10;99.90
19888;DHT22;10106;51.332;12.336;2022-10-16T04:11:37;14.10;99.90
19888;DHT22;10106;51.332;12.336;2022-10-16T04:14:04;14.10;99.90
19888;DHT22;10106;51.332;12.336;2022-10-16T04:16:29;14.00;99.90
19888;DHT22;10106;51.332;12.336;2022-10-16T04:18:55;14.00;99.90
19888;DHT22;10106;51.332;12.336;2022-10-16T04:21:21;14.00;99.90
19888;DHT22;10106;51.332;12.336;2022-10-16T04:23:47;14.00;99.90
19888;DHT22;10106;51.332;12.336;2022-10-16T04:26:13;14.00;99.90
19888;DHT22;10106;51.332;12.336;2022-10-16T04:28:38;14.00;99.90
19888;DHT22;10106;51.332;12.336;2022-10-16T04:31:05;13.90;99.90
19888;DHT22;10106;51.332;12.336;2022-10-16T04:33:30;13.90;99.90
19888;DHT22;10106;51.332;12.336;2022-10-16T04:35:57;13.90;99.90
19888;DHT22;10106;51.332;12.336;2022-10-16T04:38:23;13.90;99.90
19888;DHT22;10106;51.332;12.336;2022-10-16T04:40:49;13.90;99.90
19888;DHT22;10106;51.332;12.336;2022-10-16T04:43:14;13.90;99.90
19888;DHT22;10106;51.332;12.336;2022-10-16T04:45:40;13.80;99.90
19888;DHT22;10106;51.332;12.336;2022-10-16T04:48:05;13.80;99.90
19888;DHT22;10106;51.332;12.336;2022-10-16T04:50:31;13.80;99.90
19888;DHT22;10106;51.332;12.336;2022-10-16T04:52:57;13.80;99.90
19888;DHT22;10106;51.332;12.336;2022-10-16T04:55:22;13.80;99.90
19888;DHT22;10106;51.332;12.336;2022-10-16T04:57:48;13.80;99.90
19888;DHT22;10106;51.332;12.336;2022-10-16T05:07:53;13.90;99.90
19888;DHT22;10106;51.332;12.336;2022-10-16T05:10:19;13.90;99.90
19888;DHT22;10106;51.332;12.336;2022-10-16T05:12:45;13.90;99.90
19888;DHT22;10106;51.332;12.336;2022-10-16T05:15:11;14.00;99.90
19888;DHT22;10106;51.332;12.336;2022-10-16T05:17:37;14.00;99.90
19888;DHT22;10106;51.332;12.336;2022-10-16T05:20:03;14.00;99.90
19888;DHT22;10106;51.332;12.336;2022-10-16T05:22:29;14.00;99.90
19888;DHT22;10106;51.332;12.336;2022-10-16T05:24:55;14.00;99.90
19888;DHT22;10106;51.332;12.336;2022-10-16T05:27:20;14.00;99.90
19888;DHT22;10106;51.332;12.336;2022-10-16T05:29:47;14.00;99.90
19888;DHT22;10106;51.332;12.336;2022-10-16T05:32:14;14.00;99.90
19888;DHT22;10106;51.332;12.336;2022-10-16T05:34:39;14.00;99.90
19888;DHT22;10106;51.332;12.336;2022-10-16T05:37:05;14.00;99.90
19888;DHT22;10106;51.332;12.336;2022-10-16T05:39:31;14.00;99.90
19888;DHT22;10106;51.332;12.336;2022-10-16T05:41:56;14.00;99.90
19888;DHT22;10106;51.332;12.336;2022-10-16T05:44:22;14.00;99.90
19888;DHT22;10106;51.332;12.336;2022-10-16T05:46:48;14.00;99.90
19888;DHT22;10106;51.332;12.336;2022-10-16T05:49:13;14.10;99.90
19888;DHT22;10106;51.332;12.336;2022-10-16T05:51:39;14.10;99.90
19888;DHT22;10106;51.332;12.336;2022-10-16T05:54:05;14.20;99.90
19888;DHT22;10106;51.332;12.336;2022-10-16T05:56:34;14.30;99.90
19888;DHT22;10106;51.332;12.336;2022-10-16T05:58:59;14.40;99.90
19888;DHT22;10106;51.332;12.336;2022-10-16T06:01:25;14.40;99.90
19888;DHT22;10106;51.332;12.336;2022-10-16T06:03:51;14.50;99.90
19888;DHT22;10106;51.332;12.336;2022-10-16T06:06:19;14.70;99.90
19888;DHT22;10106;51.332;12.336;2022-10-16T06:08:46;14.80;99.90
19888;DHT22;10106;51.332;12.336;2022-10-16T06:11:33;14.90;99.90
19888;DHT22;10106;51.332;12.336;2022-10-16T06:14:01;15.00;99.90
19888;DHT22;10106;51.332;12.336;2022-10-16T06:16:34;15.20;99.90
19888;DHT22;10106;51.332;12.336;2022-10-16T06:19:00;15.30;99.90
19888;DHT22;10106;51.332;12.336;2022-10-16T06:21:27;15.40;99.90
19888;DHT22;10106;51.332;12.336;2022-10-16T06:23:54;15.60;99.90
19888;DHT22;10106;51.332;12.336;2022-10-16T06:26:22;15.60;99.90
19888;DHT22;10106;51.332;12.336;2022-10-16T06:28:49;15.70;99.90
19888;DHT22;10106;51.332;12.336;2022-10-16T06:31:16;15.70;99.90
19888;DHT22;10106;51.332;12.336;2022-10-16T06:33:42;15.70;99.90
19888;DHT22;10106;51.332;12.336;2022-10-16T06:36:13;15.80;99.90
19888;DHT22;10106;51.332;12.336;2022-10-16T06:38:40;16.00;99.90
19888;DHT22;10106;51.332;12.336;2022-10-16T06:41:07;16.10;99.90
19888;DHT22;10106;51.332;12.336;2022-10-16T06:43:33;16.10;99.90
19888;DHT22;10106;51.332;12.336;2022-10-16T06:46:03;16.00;99.90
19888;DHT22;10106;51.332;12.336;2022-10-16T06:48:29;15.90;99.90
19888;DHT22;10106;51.332;12.336;2022-10-16T06:51:10;15.80;99.90
19888;DHT22;10106;51.332;12.336;2022-10-16T06:53:43;15.80;99.90
19888;DHT22;10106;51.332;12.336;2022-10-16T06:56:15;15.70;99.90
19888;DHT22;10106;51.332;12.336;2022-10-16T06:58:41;15.80;99.90
19888;DHT22;10106;51.332;12.336;2022-10-16T07:01:08;15.80;99.90
19888;DHT22;10106;51.332;12.336;2022-10-16T07:03:37;15.80;99.90
19888;DHT22;10106;51.332;12.336;2022-10-16T07:06:04;15.80;99.90
19888;DHT22;10106;51.332;12.336;2022-10-16T07:08:35;15.80;99.90
19888;DHT22;10106;51.332;12.336;2022-10-16T07:11:09;15.80;99.90
19888;DHT22;10106;51.332;12.336;2022-10-16T07:13:36;15.80;99.90
19888;DHT22;10106;51.332;12.336;2022-10-16T07:18:32;16.00;99.90
19888;DHT22;10106;51.332;12.336;2022-10-16T07:21:12;16.10;99.90
19888;DHT22;10106;51.332;12.336;2022-10-16T07:23:38;16.30;99.90
19888;DHT22;10106;51.332;12.336;2022-10-16T07:26:05;16.50;99.90
19888;DHT22;10106;51.332;12.336;2022-10-16T07:28:31;16.60;99.90
19888;DHT22;10106;51.332;12.336;2022-10-16T07:31:09;16.70;99.90
19888;DHT22;10106;51.332;12.336;2022-10-16T07:33:37;17.00;99.90
19888;DHT22;10106;51.332;12.336;2022-10-16T07:36:03;17.10;99.90
19888;DHT22;10106;51.332;12.336;2022-10-16T07:38:29;17.20;99.90
19888;DHT22;10106;51.332;12.336;2022-10-16T07:41:02;17.20;99.90
19888;DHT22;10106;51.332;12.336;2022-10-16T07:43:29;17.20;99.90
19888;DHT22;10106;51.332;12.336;2022-10-16T07:45:55;17.20;99.90
19888;DHT22;10106;51.332;12.336;2022-10-16T07:48:21;17.50;99.90
19888;DHT22;10106;51.332;12.336;2022-10-16T07:50:47;18.20;99.90
19888;DHT22;10106;51.332;12.336;2022-10-16T07:53:13;18.80;99.90
19888;DHT22;10106;51.332;12.336;2022-10-16T07:55:38;19.00;99.90
19888;DHT22;10106;51.332;12.336;2022-10-16T07:58:04;19.20;99.90
19888;DHT22;10106;51.332;12.336;2022-10-16T08:00:31;19.70;99.90
19888;DHT22;10106;51.332;12.336;2022-10-16T08:02:57;20.70;99.90
19888;DHT22;10106;51.332;12.336;2022-10-16T08:05:26;21.70;99.90
19888;DHT22;10106;51.332;12.336;2022-10-16T08:07:52;21.90;99.90
19888;DHT22;10106;51.332;12.336;2022-10-16T08:12:45;25.70;99.90
19888;DHT22;10106;51.332;12.336;2022-10-16T08:15:11;28.70;99.90
19888;DHT22;10106;51.332;12.336;2022-10-16T08:17:37;30.30;98.60
19888;DHT22;10106;51.332;12.336;2022-10-16T08:20:02;30.70;95.20
19888;DHT22;10106;51.332;12.336;2022-10-16T08:22:28;29.80;93.60
19888;DHT22;10106;51.332;12.336;2022-10-16T08:24:53;27.40;98.30
19888;DHT22;10106;51.332;12.336;2022-10-16T08:27:19;25.20;99.90
19888;DHT22;10106;51.332;12.336;2022-10-16T08:29:45;23.60;99.90
19888;DHT22;10106;51.332;12.336;2022-10-16T08:32:10;22.30;99.90
19888;DHT22;10106;51.332;12.336;2022-10-16T08:34:36;21.50;99.90
19888;DHT22;10106;51.332;12.336;2022-10-16T08:37:01;20.80;99.90
19888;DHT22;10106;51.332;12.336;2022-10-16T08:39:27;20.50;99.90
19888;DHT22;10106;51.332;12.336;2022-10-16T08:42:20;20.40;99.90
19888;DHT22;10106;51.332;12.336;2022-10-16T08:47:26;20.50;99.90
19888;DHT22;10106;51.332;12.336;2022-10-16T08:50:24;20.30;99.90
19888;DHT22;10106;51.332;12.336;2022-10-16T08:52:51;20.10;99.90
19888;DHT22;10106;51.332;12.336;2022-10-16T08:57:56;22.00;99.90
19888;DHT22;10106;51.332;12.336;2022-10-16T09:00:22;22.60;99.90
19888;DHT22;10106;51.332;12.336;2022-10-16T09:03:04;22.40;99.90
19888;DHT22;10106;51.332;12.336;2022-10-16T09:05:49;22.40;99.90
19888;DHT22;10106;51.332;12.336;2022-10-16T09:08:41;22.10;99.90
19888;DHT22;10106;51.332;12.336;2022-10-16T09:20:13;25.20;99.90
19888;DHT22;10106;51.332;12.336;2022-10-16T09:22:43;25.50;99.90
19888;DHT22;10106;51.332;12.336;2022-10-16T09:25:17;26.00;99.90
19888;DHT22;10106;51.332;12.336;2022-10-16T09:27:47;26.00;99.90
19888;DHT22;10106;51.332;12.336;2022-10-16T09:30:15;25.30;99.90
19888;DHT22;10106;51.332;12.336;2022-10-16T09:32:43;25.60;99.90
19888;DHT22;10106;51.332;12.336;2022-10-16T09:35:21;26.00;99.90
19888;DHT22;10106;51.332;12.336;2022-10-16T09:37:49;26.00;99.90
19888;DHT22;10106;51.332;12.336;2022-10-16T09:40:30;25.60;99.90
19888;DHT22;10106;51.332;12.336;2022-10-16T09:43:12;25.30;99.90
19888;DHT22;10106;51.332;12.336;2022-10-16T09:45:41;24.90;99.90
19888;DHT22;10106;51.332;12.336;2022-10-16T09:48:11;24.70;99.90
19888;DHT22;10106;51.332;12.336;2022-10-16T09:50:38;24.10;99.90
19888;DHT22;10106;51.332;12.336;2022-10-16T09:53:09;23.30;99.90
19888;DHT22;10106;51.332;12.336;2022-10-16T09:55:36;22.70;99.90
19888;DHT22;10106;51.332;12.336;2022-10-16T09:58:01;22.30;99.90
19888;DHT22;10106;51.332;12.336;2022-10-16T10:00:27;22.00;99.90
19888;DHT22;10106;51.332;12.336;2022-10-16T10:02:54;21.80;99.90
19888;DHT22;10106;51.332;12.336;2022-10-16T10:05:26;21.70;99.90
19888;DHT22;10106;51.332;12.336;2022-10-16T10:07:57;21.80;99.90
19888;DHT22;10106;51.332;12.336;2022-10-16T10:10:29;22.10;99.90
19888;DHT22;10106;51.332;12.336;2022-10-16T10:12:55;22.60;99.90
19888;DHT22;10106;51.332;12.336;2022-10-16T10:15:22;22.80;99.90
19888;DHT22;10106;51.332;12.336;2022-10-16T10:20:35;22.80;99.90
19888;DHT22;10106;51.332;12.336;2022-10-16T10:23:21;22.60;99.90
19888;DHT22;10106;51.332;12.336;2022-10-16T10:26:16;22.30;99.90
19888;DHT22;10106;51.332;12.336;2022-10-16T10:37:25;21.80;99.90
19888;DHT22;10106;51.332;12.336;2022-10-16T10:45:51;21.60;99.90
19888;DHT22;10106;51.332;12.336;2022-10-16T10:48:24;21.30;99.90
19888;DHT22;10106;51.332;12.336;2022-10-16T10:51:04;21.10;99.90
19888;DHT22;10106;51.332;12.336;2022-10-16T10:53:40;21.10;99.90
19888;DHT22;10106;51.332;12.336;2022-10-16T11:07:18;21.40;99.90
19888;DHT22;10106;51.332;12.336;2022-10-16T11:09:51;21.50;99.90
19888;DHT22;10106;51.332;12.336;2022-10-16T11:17:43;21.70;99.90
19888;DHT22;10106;51.332;12.336;2022-10-16T11:20:14;21.50;99.90
19888;DHT22;10106;51.332;12.336;2022-10-16T11:33:53;21.70;99.90
19888;DHT22;10106;51.332;12.336;2022-10-16T11:36:38;21.80;99.90
19888;DHT22;10106;51.332;12.336;2022-10-16T11:39:19;21.80;99.90
19888;DHT22;10106;51.332;12.336;2022-10-16T11:41:54;21.90;99.90
19888;DHT22;10106;51.332;12.336;2022-10-16T11:49:53;21.70;99.90
19888;DHT22;10106;51.332;12.336;2022-10-16T11:52:25;21.70;99.90
19888;DHT22;10106;51.332;12.336;2022-10-16T11:57:32;21.70;99.90
19888;DHT22;10106;51.332;12.336;2022-10-16T12:06:02;21.80;99.90
19888;DHT22;10106;51.332;12.336;2022-10-16T12:08:30;21.70;99.90
19888;DHT22;10106;51.332;12.336;2022-10-16T12:16:30;21.80;99.90
19888;DHT22;10106;51.332;12.336;2022-10-16T12:19:13;21.70;99.90
19888;DHT22;10106;51.332;12.336;2022-10-16T12:21:39;21.60;99.90
19888;DHT22;10106;51.332;12.336;2022-10-16T12:24:05;21.50;99.90
19888;DHT22;10106;51.332;12.336;2022-10-16T12:26:33;21.40;99.90
19888;DHT22;10106;51.332;12.336;2022-10-16T12:29:37;21.20;99.90
19888;DHT22;10106;51.332;12.336;2022-10-16T12:32:38;21.10;99.90
19888;DHT22;10106;51.332;12.336;2022-10-16T12:35:06;21.10;99.90
19888;DHT22;10106;51.332;12.336;2022-10-16T12:37:42;21.00;99.90
19888;DHT22;10106;51.332;12.336;2022-10-16T12:40:30;21.20;99.90
19888;DHT22;10106;51.332;12.336;2022-10-16T12:42:57;21.30;99.90
19888;DHT22;10106;51.332;12.336;2022-10-16T12:47:54;21.40;99.90
19888;DHT22;10106;51.332;12.336;2022-10-16T12:50:38;21.40;99.90
19888;DHT22;10106;51.332;12.336;2022-10-16T12:53:38;21.20;99.90
19888;DHT22;10106;51.332;12.336;2022-10-16T12:56:27;20.90;99.90
19888;DHT22;10106;51.332;12.336;2022-10-16T13:05:08;20.60;99.90
19888;DHT22;10106;51.332;12.336;2022-10-16T13:07:48;20.60;99.90
19888;DHT22;10106;51.332;12.336;2022-10-16T13:19:29;20.60;99.90
19888;DHT22;10106;51.332;12.336;2022-10-16T13:22:48;20.50;99.90
19888;DHT22;10106;51.332;12.336;2022-10-16T13:30:30;20.40;99.90
19888;DHT22;10106;51.332;12.336;2022-10-16T13:35:28;20.30;99.90
19888;DHT22;10106;51.332;12.336;2022-10-16T13:38:13;20.10;99.90
19888;DHT22;10106;51.332;12.336;2022-10-16T13:40:49;20.00;99.90
19888;DHT22;10106;51.332;12.336;2022-10-16T13:43:20;20.00;99.90
19888;DHT22;10106;51.332;12.336;2022-10-16T13:46:05;19.90;99.90
19888;DHT22;10106;51.332;12.336;2022-10-16T13:48:32;19.90;99.90
19888;DHT22;10106;51.332;12.336;2022-10-16T13:50:58;19.90;99.90
19888;DHT22;10106;51.332;12.336;2022-10-16T13:53:24;19.70;99.90
19888;DHT22;10106;51.332;12.336;2022-10-16T13:55:49;19.60;99.90
19888;DHT22;10106;51.332;12.336;2022-10-16T13:58:15;19.60;99.90
19888;DHT22;10106;51.332;12.336;2022-10-16T14:00:51;19.60;99.90
19888;DHT22;10106;51.332;12.336;2022-10-16T14:03:18;19.50;99.90
19888;DHT22;10106;51.332;12.336;2022-10-16T14:05:48;19.50;99.90
19888;DHT22;10106;51.332;12.336;2022-10-16T14:08:14;19.40;99.90
19888;DHT22;10106;51.332;12.336;2022-10-16T14:10:40;19.40;99.90
19888;DHT22;10106;51.332;12.336;2022-10-16T14:13:06;19.30;99.90
19888;DHT22;10106;51.332;12.336;2022-10-16T14:15:34;19.20;99.90
19888;DHT22;10106;51.332;12.336;2022-10-16T14:18:01;19.20;99.90
19888;DHT22;10106;51.332;12.336;2022-10-16T14:20:29;19.10;99.90
19888;DHT22;10106;51.332;12.336;2022-10-16T14:23:00;19.10;99.90
19888;DHT22;10106;51.332;12.336;2022-10-16T14:25:29;19.10;99.90
19888;DHT22;10106;51.332;12.336;2022-10-16T14:28:21;19.10;99.90
19888;DHT22;10106;51.332;12.336;2022-10-16T14:30:58;19.20;99.90
19888;DHT22;10106;51.332;12.336;2022-10-16T14:33:33;19.30;99.90
19888;DHT22;10106;51.332;12.336;2022-10-16T14:36:12;19.30;99.90
19888;DHT22;10106;51.332;12.336;2022-10-16T14:38:40;19.40;99.90
19888;DHT22;10106;51.332;12.336;2022-10-16T14:41:06;19.40;99.90
19888;DHT22;10106;51.332;12.336;2022-10-16T14:43:33;19.50;99.90
19888;DHT22;10106;51.332;12.336;2022-10-16T14:45:59;19.50;99.90
19888;DHT22;10106;51.332;12.336;2022-10-16T14:48:26;19.60;99.90
19888;DHT22;10106;51.332;12.336;2022-10-16T14:50:52;19.60;99.90
19888;DHT22;10106;51.332;12.336;2022-10-16T14:53:18;19.50;99.90
19888;DHT22;10106;51.332;12.336;2022-10-16T14:55:44;19.60;99.90
19888;DHT22;10106;51.332;12.336;2022-10-16T14:58:21;19.50;99.90
19888;DHT22;10106;51.332;12.336;2022-10-16T15:00:47;19.40;99.90
19888;DHT22;10106;51.332;12.336;2022-10-16T15:03:14;19.30;99.90
19888;DHT22;10106;51.332;12.336;2022-10-16T15:05:40;19.30;99.90
19888;DHT22;10106;51.332;12.336;2022-10-16T15:08:05;19.20;99.90
19888;DHT22;10106;51.332;12.336;2022-10-16T15:10:35;19.20;99.90
19888;DHT22;10106;51.332;12.336;2022-10-16T15:13:03;19.20;99.90
19888;DHT22;10106;51.332;12.336;2022-10-16T15:15:38;19.10;99.90
19888;DHT22;10106;51.332;12.336;2022-10-16T15:18:05;19.00;99.90
19888;DHT22;10106;51.332;12.336;2022-10-16T15:20:33;18.90;99.90
19888;DHT22;10106;51.332;12.336;2022-10-16T15:23:04;18.80;99.90
19888;DHT22;10106;51.332;12.336;2022-10-16T15:27:56;18.70;99.90
19888;DHT22;10106;51.332;12.336;2022-10-16T15:30:22;18.50;99.90
19888;DHT22;10106;51.332;12.336;2022-10-16T15:32:47;18.50;99.90
19888;DHT22;10106;51.332;12.336;2022-10-16T15:35:13;18.40;99.90
19888;DHT22;10106;51.332;12.336;2022-10-16T15:37:38;18.30;99.90
19888;DHT22;10106;51.332;12.336;2022-10-16T15:40:04;18.30;99.90
19888;DHT22;10106;51.332;12.336;2022-10-16T15:42:30;18.40;99.90
19888;DHT22;10106;51.332;12.336;2022-10-16T15:44:56;18.40;99.90
19888;DHT22;10106;51.332;12.336;2022-10-16T15:47:21;18.40;99.90
19888;DHT22;10106;51.332;12.336;2022-10-16T15:49:47;18.40;99.90
19888;DHT22;10106;51.332;12.336;2022-10-16T15:52:13;18.40;99.90
19888;DHT22;10106;51.332;12.336;2022-10-16T15:54:38;18.40;99.90
19888;DHT22;10106;51.332;12.336;2022-10-16T15:57:04;18.50;99.90
19888;DHT22;10106;51.332;12.336;2022-10-16T15:59:29;18.50;99.90
19888;DHT22;10106;51.332;12.336;2022-10-16T16:01:55;18.50;99.90
19888;DHT22;10106;51.332;12.336;2022-10-16T16:04:21;18.50;99.90
19888;DHT22;10106;51.332;12.336;2022-10-16T16:06:46;18.40;99.90
19888;DHT22;10106;51.332;12.336;2022-10-16T16:09:13;18.40;99.90
19888;DHT22;10106;51.332;12.336;2022-10-16T16:11:39;18.30;99.90
19888;DHT22;10106;51.332;12.336;2022-10-16T16:14:11;18.20;99.90
19888;DHT22;10106;51.332;12.336;2022-10-16T16:16:38;18.20;99.90
19888;DHT22;10106;51.332;12.336;2022-10-16T16:19:04;18.10;99.90
19888;DHT22;10106;51.332;12.336;2022-10-16T16:21:32;18.00;99.90
19888;DHT22;10106;51.332;12.336;2022-10-16T16:23:57;18.00;99.90
19888;DHT22;10106;51.332;12.336;2022-10-16T16:26:28;17.90;99.90
19888;DHT22;10106;51.332;12.336;2022-10-16T16:28:58;17.90;99.90
19888;DHT22;10106;51.332;12.336;2022-10-16T16:31:25;17.90;99.90
19888;DHT22;10106;51.332;12.336;2022-10-16T16:33:51;17.80;99.90
19888;DHT22;10106;51.332;12.336;2022-10-16T16:36:18;17.70;99.90
19888;DHT22;10106;51.332;12.336;2022-10-16T16:38:45;17.70;99.90
19888;DHT22;10106;51.332;12.336;2022-10-16T16:41:18;17.60;99.90
19888;DHT22;10106;51.332;12.336;2022-10-16T16:43:44;17.60;99.90
19888;DHT22;10106;51.332;12.336;2022-10-16T16:46:11;17.60;99.90
19888;DHT22;10106;51.332;12.336;2022-10-16T16:48:37;17.50;99.90
19888;DHT22;10106;51.332;12.336;2022-10-16T16:51:08;17.50;99.90
19888;DHT22;10106;51.332;12.336;2022-10-16T16:53:36;17.40;99.90
19888;DHT22;10106;51.332;12.336;2022-10-16T16:56:05;17.40;99.90
19888;DHT22;10106;51.332;12.336;2022-10-16T16:58:32;17.40;99.90
19888;DHT22;10106;51.332;12.336;2022-10-16T17:00:58;17.40;99.90
19888;DHT22;10106;51.332;12.336;2022-10-16T17:03:31;17.40;99.90
19888;DHT22;10106;51.332;12.336;2022-10-16T17:05:58;17.40;99.90
19888;DHT22;10106;51.332;12.336;2022-10-16T17:08:24;17.40;99.90
19888;DHT22;10106;51.332;12.336;2022-10-16T17:10:49;17.40;99.90
19888;DHT22;10106;51.332;12.336;2022-10-16T17:13:18;17.40;99.90
19888;DHT22;10106;51.332;12.336;2022-10-16T17:15:49;17.50;99.90
19888;DHT22;10106;51.332;12.336;2022-10-16T17:18:15;17.50;99.90
19888;DHT22;10106;51.332;12.336;2022-10-16T17:20:41;17.50;99.90
19888;DHT22;10106;51.332;12.336;2022-10-16T17:23:08;17.50;99.90
19888;DHT22;10106;51.332;12.336;2022-10-16T17:25:38;17.50;99.90
19888;DHT22;10106;51.332;12.336;2022-10-16T17:28:04;17.50;99.90
19888;DHT22;10106;51.332;12.336;2022-10-16T17:30:30;17.50;99.90
19888;DHT22;10106;51.332;12.336;2022-10-16T17:32:55;17.50;99.90
19888;DHT22;10106;51.332;12.336;2022-10-16T17:35:21;17.50;99.90
19888;DHT22;10106;51.332;12.336;2022-10-16T17:37:47;17.50;99.90
19888;DHT22;10106;51.332;12.336;2022-10-16T17:40:12;17.50;99.90